createdAt,value
2017-02-05T00:01:07.507Z,0
2017-02-05T00:02:17.860Z,0
2017-02-05T00:03:28.610Z,0
2017-02-05T00:04:39.356Z,0
2017-02-05T00:05:50.109Z,0
2017-02-05T00:07:00.085Z,0
2017-02-05T00:08:10.851Z,0
2017-02-05T00:09:21.598Z,0
2017-02-05T00:10:32.388Z,0
2017-02-05T00:11:43.126Z,0
2017-02-05T00:12:53.509Z,0
2017-02-05T00:14:04.256Z,0
2017-02-05T00:15:13.840Z,0
2017-02-05T00:16:23.397Z,0
2017-02-05T00:17:34.150Z,0
2017-02-05T00:18:44.890Z,0
2017-02-05T00:19:55.642Z,0
2017-02-05T00:21:05.995Z,0
2017-02-05T00:22:16.745Z,0
2017-02-05T00:23:27.513Z,0
2017-02-05T00:24:38.265Z,0
2017-02-05T00:25:49.031Z,0
2017-02-05T00:26:59.371Z,0
2017-02-05T00:28:10.128Z,0
2017-02-05T00:29:20.857Z,0
2017-02-05T00:30:31.621Z,0
2017-02-05T00:31:41.986Z,0
2017-02-05T00:32:52.732Z,0
2017-02-05T00:34:03.131Z,0
2017-02-05T00:35:13.864Z,0
2017-02-05T00:36:24.618Z,0
2017-02-05T00:37:34.618Z,0
2017-02-05T00:38:45.366Z,0
2017-02-05T00:39:56.113Z,0
2017-02-05T00:41:06.469Z,0
2017-02-05T00:42:17.220Z,0
2017-02-05T00:43:27.601Z,0
2017-02-05T00:44:37.950Z,0
2017-02-05T00:45:47.508Z,0
2017-02-05T00:46:56.673Z,0
2017-02-05T00:48:07.417Z,0
2017-02-05T00:49:18.166Z,0
2017-02-05T00:50:28.517Z,0
2017-02-05T00:51:38.489Z,0
2017-02-05T00:52:48.845Z,0
2017-02-05T00:53:59.219Z,0
2017-02-05T00:55:09.597Z,0
2017-02-05T00:56:19.972Z,0
2017-02-05T00:57:30.746Z,0
2017-02-05T00:58:40.701Z,0
2017-02-05T00:59:51.438Z,0
2017-02-05T01:01:01.789Z,0
2017-02-05T01:02:12.545Z,0
2017-02-05T01:03:23.277Z,0
2017-02-05T01:04:33.230Z,0
2017-02-05T01:05:43.586Z,0
2017-02-05T01:06:53.936Z,0
2017-02-05T01:08:04.697Z,0
2017-02-05T01:09:14.657Z,0
2017-02-05T01:10:25.455Z,0
2017-02-05T01:11:35.039Z,0
2017-02-05T01:12:45.389Z,0
2017-02-05T01:13:56.145Z,0
2017-02-05T01:15:06.118Z,0
2017-02-05T01:16:16.874Z,0
2017-02-05T01:17:26.823Z,0
2017-02-05T01:18:36.786Z,0
2017-02-05T01:19:46.337Z,0
2017-02-05T01:20:56.728Z,0
2017-02-05T01:22:07.106Z,0
2017-02-05T01:23:17.847Z,0
2017-02-05T01:24:27.804Z,0
2017-02-05T01:25:38.560Z,0
2017-02-05T01:26:48.524Z,0
2017-02-05T01:27:59.279Z,0
2017-02-05T01:29:08.836Z,0
2017-02-05T01:30:19.182Z,0
2017-02-05T01:31:29.140Z,0
2017-02-05T01:32:39.884Z,0
2017-02-05T01:33:50.241Z,0
2017-02-05T01:35:00.987Z,0
2017-02-05T01:36:11.720Z,0
2017-02-05T01:37:22.472Z,0
2017-02-05T01:38:32.829Z,0
2017-02-05T01:39:42.790Z,0
2017-02-05T01:40:53.551Z,0
2017-02-05T01:42:04.303Z,0
2017-02-05T01:43:15.041Z,0
2017-02-05T01:44:25.785Z,0
2017-02-05T01:45:35.742Z,0
2017-02-05T01:46:46.480Z,0
2017-02-05T01:47:56.855Z,0
2017-02-05T01:49:07.242Z,0
2017-02-05T01:50:17.984Z,0
2017-02-05T01:51:28.341Z,0
2017-02-05T01:52:38.684Z,0
2017-02-05T01:53:49.049Z,0
2017-02-05T01:54:59.803Z,0
2017-02-05T01:56:09.761Z,0
2017-02-05T01:57:20.125Z,0
2017-02-05T01:58:30.873Z,0
2017-02-05T01:59:41.227Z,0
2017-02-05T02:00:51.185Z,0
2017-02-05T02:02:01.930Z,0
2017-02-05T02:03:12.675Z,0
2017-02-05T02:04:23.028Z,0
2017-02-05T02:05:33.380Z,0
2017-02-05T02:06:44.129Z,0
2017-02-05T02:07:54.876Z,0
2017-02-05T02:09:05.625Z,0
2017-02-05T02:10:14.795Z,0
2017-02-05T02:11:25.159Z,0
2017-02-05T02:12:35.902Z,0
2017-02-05T02:13:46.263Z,0
2017-02-05T02:14:57.017Z,0
2017-02-05T02:16:07.762Z,0
2017-02-05T02:17:18.752Z,0
2017-02-05T02:18:29.489Z,0
2017-02-05T02:19:39.445Z,0
2017-02-05T02:20:50.237Z,0
2017-02-05T02:22:01.003Z,0
2017-02-05T02:23:11.356Z,0
2017-02-05T02:24:21.722Z,0
2017-02-05T02:25:31.684Z,0
2017-02-05T02:26:42.043Z,0
2017-02-05T02:27:52.383Z,0
2017-02-05T02:29:02.740Z,0
2017-02-05T02:30:13.123Z,0
2017-02-05T02:31:23.867Z,0
2017-02-05T02:32:33.467Z,0
2017-02-05T02:33:43.832Z,0
2017-02-05T02:34:54.198Z,0
2017-02-05T02:36:04.555Z,0
2017-02-05T02:37:15.297Z,0
2017-02-05T02:38:26.044Z,0
2017-02-05T02:39:35.603Z,0
2017-02-05T02:40:45.573Z,0
2017-02-05T02:41:56.315Z,0
2017-02-05T02:43:07.059Z,0
2017-02-05T02:44:17.806Z,0
2017-02-05T02:45:28.540Z,0
2017-02-05T02:46:39.282Z,0
2017-02-05T02:47:49.239Z,0
2017-02-05T02:48:59.985Z,0
2017-02-05T02:50:09.941Z,0
2017-02-05T02:51:20.290Z,0
2017-02-05T02:52:30.645Z,0
2017-02-05T02:53:41.392Z,0
2017-02-05T02:54:52.138Z,0
2017-02-05T02:56:02.894Z,0
2017-02-05T02:57:13.652Z,0
2017-02-05T02:58:24.015Z,0
2017-02-05T02:59:33.965Z,0
2017-02-05T03:00:44.312Z,0
2017-02-05T03:32:40.780Z,0
2017-02-05T03:33:51.578Z,0
2017-02-05T03:35:01.522Z,0
2017-02-05T03:36:11.867Z,0
2017-02-05T03:37:22.213Z,0
2017-02-05T03:38:32.183Z,0
2017-02-05T03:39:42.925Z,0
2017-02-05T03:40:53.272Z,0
2017-02-05T03:42:03.233Z,0
2017-02-05T03:43:13.570Z,0
2017-02-05T03:44:23.522Z,0
2017-02-05T03:45:33.869Z,0
2017-02-05T03:46:44.475Z,0
2017-02-05T03:47:54.822Z,0
2017-02-05T03:49:05.187Z,0
2017-02-05T03:50:15.166Z,0
2017-02-05T03:51:25.960Z,0
2017-02-05T03:52:36.706Z,0
2017-02-05T03:53:47.464Z,0
2017-02-05T03:54:58.223Z,0
2017-02-05T03:56:08.599Z,0
2017-02-05T03:57:18.567Z,0
2017-02-05T03:58:28.915Z,0
2017-02-05T03:59:39.270Z,0
2017-02-05T04:00:49.632Z,0
2017-02-05T04:02:00.379Z,0
2017-02-05T04:03:11.156Z,0
2017-02-05T04:04:21.532Z,0
2017-02-05T04:05:31.879Z,0
2017-02-05T04:06:42.617Z,0
2017-02-05T04:07:53.382Z,0
2017-02-05T04:09:04.121Z,0
2017-02-05T04:10:14.486Z,0
2017-02-05T04:11:25.223Z,0
2017-02-05T04:12:35.985Z,0
2017-02-05T04:13:45.946Z,0
2017-02-05T04:14:56.305Z,0
2017-02-05T04:16:07.046Z,0
2017-02-05T04:17:17.805Z,0
2017-02-05T04:18:28.159Z,0
2017-02-05T04:19:38.519Z,0
2017-02-05T04:20:48.871Z,0
2017-02-05T04:21:59.616Z,0
2017-02-05T04:23:10.000Z,0
2017-02-05T04:24:20.736Z,0
2017-02-05T04:25:30.294Z,0
2017-02-05T04:26:41.049Z,0
2017-02-05T04:27:51.788Z,0
2017-02-05T04:29:02.143Z,0
2017-02-05T04:30:11.343Z,0
2017-02-05T04:31:22.091Z,0
2017-02-05T04:32:32.053Z,0
2017-02-05T04:33:42.814Z,0
2017-02-05T04:34:53.174Z,0
2017-02-05T04:36:03.924Z,0
2017-02-05T04:37:14.670Z,0
2017-02-05T04:38:24.623Z,0
2017-02-05T04:39:34.974Z,0
2017-02-05T04:40:45.331Z,0
2017-02-05T04:41:55.683Z,0
2017-02-05T04:43:06.661Z,0
2017-02-05T04:44:17.419Z,0
2017-02-05T04:45:28.164Z,0
2017-02-05T04:46:38.923Z,0
2017-02-05T04:47:49.668Z,0
2017-02-05T04:49:00.623Z,0
2017-02-05T04:50:10.585Z,0
2017-02-05T04:51:20.941Z,0
2017-02-05T04:52:31.288Z,0
2017-02-05T04:53:41.635Z,0
2017-02-05T04:54:51.997Z,0
2017-02-05T04:56:02.744Z,0
2017-02-05T04:57:13.491Z,0
2017-02-05T04:58:24.266Z,0
2017-02-05T04:59:34.603Z,0
2017-02-05T05:00:44.565Z,0
2017-02-05T05:01:54.962Z,0
2017-02-05T05:03:04.918Z,0
2017-02-05T05:04:15.666Z,0
2017-02-05T05:05:26.047Z,0
2017-02-05T05:06:36.410Z,0
2017-02-05T05:07:46.361Z,0
2017-02-05T05:08:56.313Z,0
2017-02-05T05:10:06.669Z,0
2017-02-05T05:11:17.416Z,0
2017-02-05T05:12:27.758Z,0
2017-02-05T05:13:37.734Z,0
2017-02-05T05:14:48.091Z,0
2017-02-05T05:15:58.438Z,0
2017-02-05T05:17:07.994Z,0
2017-02-05T05:18:18.345Z,0
2017-02-05T05:19:29.097Z,0
2017-02-05T05:20:39.870Z,0
2017-02-05T05:21:50.630Z,0
2017-02-05T05:23:01.380Z,0
2017-02-05T05:24:12.147Z,0
2017-02-05T05:25:22.489Z,0
2017-02-05T05:26:32.845Z,0
2017-02-05T05:27:43.249Z,0
2017-02-05T05:28:54.027Z,0
2017-02-05T05:30:04.769Z,0
2017-02-05T05:31:15.121Z,0
2017-02-05T05:32:25.081Z,0
2017-02-05T05:33:35.830Z,0
2017-02-05T05:34:46.584Z,0
2017-02-05T05:35:57.330Z,0
2017-02-05T05:37:08.087Z,0
2017-02-05T05:38:18.445Z,0
2017-02-05T05:39:29.197Z,0
2017-02-05T05:40:39.949Z,0
2017-02-05T05:41:50.698Z,0
2017-02-05T05:43:01.058Z,0
2017-02-05T05:44:11.814Z,0
2017-02-05T05:45:22.585Z,0
2017-02-05T05:46:32.941Z,0
2017-02-05T05:47:43.302Z,0
2017-02-05T05:48:53.265Z,0
2017-02-05T05:50:04.011Z,0
2017-02-05T05:51:14.772Z,0
2017-02-05T05:52:25.520Z,0
2017-02-05T05:53:35.862Z,0
2017-02-05T05:54:46.448Z,0
2017-02-05T05:55:57.206Z,0
2017-02-05T05:57:07.560Z,0
2017-02-05T05:58:16.739Z,0
2017-02-05T05:59:27.486Z,0
2017-02-05T06:00:37.450Z,0
2017-02-05T06:01:48.189Z,0
2017-02-05T06:02:58.536Z,0
2017-02-05T06:04:08.878Z,0
2017-02-05T06:05:19.615Z,0
2017-02-05T06:06:30.360Z,0
2017-02-05T06:07:40.705Z,0
2017-02-05T06:08:51.064Z,0
2017-02-05T06:10:01.806Z,0
2017-02-05T06:11:12.168Z,0
2017-02-05T06:12:21.744Z,0
2017-02-05T06:13:32.096Z,0
2017-02-05T06:14:42.848Z,0
2017-02-05T06:15:53.606Z,5
2017-02-05T06:17:03.971Z,5
2017-02-05T06:18:14.760Z,5
2017-02-05T06:19:25.515Z,5
2017-02-05T06:20:35.861Z,5
2017-02-05T06:21:46.807Z,5
2017-02-05T06:22:57.159Z,5
2017-02-05T06:24:07.514Z,10
2017-02-05T06:25:17.901Z,10
2017-02-05T06:26:27.464Z,10
2017-02-05T06:27:37.820Z,10
2017-02-05T06:28:48.561Z,15
2017-02-05T06:29:58.913Z,15
2017-02-05T06:31:08.877Z,15
2017-02-05T06:32:19.234Z,20
2017-02-05T06:33:29.987Z,20
2017-02-05T06:34:40.370Z,20
2017-02-05T06:35:50.965Z,25
2017-02-05T06:37:01.710Z,25
2017-02-05T06:38:12.088Z,25
2017-02-05T06:39:22.050Z,25
2017-02-05T06:40:32.797Z,25
2017-02-05T06:41:43.150Z,25
2017-02-05T06:42:53.886Z,25
2017-02-05T06:44:04.641Z,30
2017-02-05T06:45:15.394Z,30
2017-02-05T06:46:26.137Z,35
2017-02-05T06:47:36.100Z,40
2017-02-05T06:48:45.686Z,45
2017-02-05T06:49:56.447Z,45
2017-02-05T06:51:07.196Z,45
2017-02-05T06:52:17.577Z,50
2017-02-05T06:53:28.342Z,50
2017-02-05T06:54:38.533Z,50
2017-02-05T06:55:48.882Z,55
2017-02-05T06:56:59.633Z,55
2017-02-05T06:58:09.999Z,55
2017-02-05T06:59:20.352Z,60
2017-02-05T07:00:30.733Z,60
2017-02-05T07:01:41.473Z,60
2017-02-05T07:02:51.051Z,60
2017-02-05T07:04:01.400Z,60
2017-02-05T07:05:12.151Z,65
2017-02-05T07:06:22.508Z,65
2017-02-05T07:07:32.455Z,65
2017-02-05T07:08:42.851Z,70
2017-02-05T07:09:53.203Z,70
2017-02-05T07:11:03.600Z,75
2017-02-05T07:12:13.945Z,75
2017-02-05T07:13:24.311Z,75
2017-02-05T07:14:34.675Z,80
2017-02-05T07:15:45.416Z,80
2017-02-05T07:16:56.172Z,85
2017-02-05T07:18:06.946Z,85
2017-02-05T07:19:17.707Z,85
2017-02-05T07:20:28.054Z,90
2017-02-05T07:21:38.809Z,90
2017-02-05T07:22:49.162Z,90
2017-02-05T07:23:59.534Z,95
2017-02-05T07:25:09.132Z,95
2017-02-05T07:26:19.496Z,95
2017-02-05T07:27:30.256Z,95
2017-02-05T07:28:40.614Z,100
2017-02-05T07:29:51.378Z,100
2017-02-05T07:31:02.168Z,100
2017-02-05T07:32:12.955Z,105
2017-02-05T07:33:23.313Z,105
2017-02-05T07:34:34.097Z,105
2017-02-05T07:35:44.453Z,105
2017-02-05T07:36:54.808Z,110
2017-02-05T07:38:05.162Z,110
2017-02-05T07:39:15.526Z,110
2017-02-05T07:40:25.884Z,115
2017-02-05T07:41:36.240Z,115
2017-02-05T07:42:46.598Z,115
2017-02-05T07:43:56.955Z,115
2017-02-05T07:45:06.518Z,120
2017-02-05T07:46:16.508Z,120
2017-02-05T07:47:26.862Z,120
2017-02-05T07:48:37.228Z,120
2017-02-05T07:49:47.581Z,125
2017-02-05T07:50:58.330Z,125
2017-02-05T07:52:08.693Z,125
2017-02-05T07:53:18.867Z,130
2017-02-05T07:54:28.833Z,130
2017-02-05T07:55:39.185Z,130
2017-02-05T07:56:49.560Z,130
2017-02-05T07:57:59.925Z,130
2017-02-05T07:59:10.318Z,130
2017-02-05T08:00:20.714Z,130
2017-02-05T08:01:30.678Z,130
2017-02-05T08:02:41.442Z,135
2017-02-05T08:03:52.191Z,135
2017-02-05T08:05:02.937Z,135
2017-02-05T08:06:13.290Z,135
2017-02-05T08:07:23.671Z,140
2017-02-05T08:08:34.443Z,140
2017-02-05T08:09:44.799Z,140
2017-02-05T08:10:55.160Z,145
2017-02-05T08:12:05.919Z,145
2017-02-05T08:13:15.894Z,145
2017-02-05T08:14:26.265Z,145
2017-02-05T08:15:36.634Z,150
2017-02-05T08:16:47.396Z,150
2017-02-05T08:17:57.761Z,150
2017-02-05T08:19:08.123Z,150
2017-02-05T08:20:18.480Z,155
2017-02-05T08:21:28.845Z,155
2017-02-05T08:22:39.214Z,155
2017-02-05T08:23:49.986Z,155
2017-02-05T08:25:00.355Z,160
2017-02-05T08:26:09.932Z,160
2017-02-05T08:27:20.681Z,160
2017-02-05T08:28:31.040Z,160
2017-02-05T08:29:41.408Z,165
2017-02-05T08:30:51.762Z,165
2017-02-05T08:32:02.510Z,165
2017-02-05T08:33:12.487Z,165
2017-02-05T08:34:23.249Z,165
2017-02-05T08:35:34.002Z,170
2017-02-05T08:36:44.750Z,170
2017-02-05T08:37:55.507Z,170
2017-02-05T08:39:05.852Z,170
2017-02-05T08:40:16.227Z,170
2017-02-05T08:41:25.801Z,175
2017-02-05T08:42:36.601Z,175
2017-02-05T08:43:46.986Z,175
2017-02-05T08:44:57.736Z,175
2017-02-05T08:46:07.694Z,180
2017-02-05T08:47:17.664Z,180
2017-02-05T08:48:28.034Z,180
2017-02-05T08:49:38.833Z,180
2017-02-05T08:50:49.588Z,185
2017-02-05T08:51:59.942Z,185
2017-02-05T08:53:10.703Z,185
2017-02-05T08:54:20.672Z,185
2017-02-05T08:55:31.034Z,185
2017-02-05T08:56:41.776Z,190
2017-02-05T08:57:52.542Z,190
2017-02-05T08:59:03.298Z,190
2017-02-05T09:00:14.049Z,190
2017-02-05T09:01:24.809Z,190
2017-02-05T09:02:35.612Z,190
2017-02-05T09:03:45.959Z,195
2017-02-05T09:04:56.321Z,195
2017-02-05T09:06:06.276Z,195
2017-02-05T09:07:16.625Z,195
2017-02-05T09:08:27.397Z,195
2017-02-05T09:09:36.963Z,195
2017-02-05T09:10:47.717Z,195
2017-02-05T09:11:57.684Z,195
2017-02-05T09:13:08.091Z,195
2017-02-05T09:14:18.868Z,195
2017-02-05T09:15:29.226Z,195
2017-02-05T09:16:39.615Z,195
2017-02-05T09:17:49.988Z,200
2017-02-05T09:19:00.746Z,200
2017-02-05T09:20:11.525Z,200
2017-02-05T09:21:21.889Z,200
2017-02-05T09:22:32.254Z,200
2017-02-05T09:23:42.211Z,200
2017-02-05T09:24:52.971Z,205
2017-02-05T09:26:03.339Z,205
2017-02-05T09:27:14.106Z,205
2017-02-05T09:28:24.518Z,205
2017-02-05T09:29:34.902Z,205
2017-02-05T09:30:45.662Z,205
2017-02-05T09:31:55.238Z,210
2017-02-05T09:33:05.606Z,210
2017-02-05T09:34:16.363Z,210
2017-02-05T09:35:27.343Z,210
2017-02-05T09:36:37.704Z,210
2017-02-05T09:37:48.068Z,210
2017-02-05T09:38:58.831Z,215
2017-02-05T09:40:09.207Z,210
2017-02-05T09:41:19.959Z,215
2017-02-05T09:42:30.323Z,215
2017-02-05T09:43:40.674Z,215
2017-02-05T09:44:51.470Z,215
2017-02-05T09:46:01.826Z,215
2017-02-05T09:47:12.569Z,215
2017-02-05T09:48:22.937Z,215
2017-02-05T09:49:33.678Z,220
2017-02-05T09:50:44.445Z,220
2017-02-05T09:51:55.210Z,220
2017-02-05T09:53:05.573Z,220
2017-02-05T09:54:16.340Z,220
2017-02-05T09:55:26.698Z,220
2017-02-05T09:56:37.063Z,220
2017-02-05T09:57:47.044Z,220
2017-02-05T09:58:57.815Z,220
2017-02-05T10:00:08.583Z,230
2017-02-05T10:01:18.596Z,225
2017-02-05T10:02:28.562Z,225
2017-02-05T10:03:39.328Z,225
2017-02-05T10:04:48.901Z,225
2017-02-05T10:05:59.656Z,225
2017-02-05T10:07:10.018Z,225
2017-02-05T10:08:20.370Z,225
2017-02-05T10:09:31.135Z,230
2017-02-05T10:10:41.501Z,230
2017-02-05T10:11:51.875Z,225
2017-02-05T10:13:02.645Z,225
2017-02-05T10:14:13.012Z,230
2017-02-05T10:15:23.756Z,230
2017-02-05T10:16:34.529Z,230
2017-02-05T10:17:45.339Z,230
2017-02-05T10:18:56.099Z,230
2017-02-05T10:20:06.886Z,230
2017-02-05T10:21:17.653Z,230
2017-02-05T10:22:28.418Z,230
2017-02-05T10:23:38.776Z,230
2017-02-05T10:24:49.127Z,230
2017-02-05T10:25:59.879Z,230
2017-02-05T10:27:10.233Z,230
2017-02-05T10:28:20.594Z,235
2017-02-05T10:29:31.355Z,235
2017-02-05T10:30:41.722Z,235
2017-02-05T10:31:52.089Z,235
2017-02-05T10:33:02.474Z,235
2017-02-05T10:34:12.845Z,235
2017-02-05T10:35:23.223Z,235
2017-02-05T10:36:33.804Z,235
2017-02-05T10:37:44.169Z,235
2017-02-05T10:38:54.529Z,235
2017-02-05T10:40:04.877Z,235
2017-02-05T10:41:15.272Z,235
2017-02-05T10:42:26.020Z,235
2017-02-05T10:43:36.387Z,235
2017-02-05T10:44:46.743Z,235
2017-02-05T10:45:57.118Z,235
2017-02-05T10:47:07.118Z,235
2017-02-05T10:48:17.082Z,235
2017-02-05T10:49:27.854Z,235
2017-02-05T10:50:38.225Z,235
2017-02-05T10:51:48.989Z,235
2017-02-05T10:52:59.349Z,240
2017-02-05T10:54:09.710Z,240
2017-02-05T10:55:20.468Z,240
2017-02-05T10:56:31.254Z,240
2017-02-05T10:57:41.635Z,240
2017-02-05T10:58:52.396Z,240
2017-02-05T11:00:03.181Z,240
2017-02-05T11:01:13.966Z,240
2017-02-05T11:02:24.347Z,240
2017-02-05T11:03:34.736Z,240
2017-02-05T11:04:44.723Z,240
2017-02-05T11:05:54.686Z,240
2017-02-05T11:07:05.466Z,245
2017-02-05T11:08:16.247Z,245
2017-02-05T11:09:26.224Z,245
2017-02-05T11:10:37.010Z,245
2017-02-05T11:11:47.398Z,245
2017-02-05T11:12:57.378Z,245
2017-02-05T11:14:07.749Z,245
2017-02-05T11:15:18.119Z,245
2017-02-05T11:16:28.906Z,245
2017-02-05T11:17:39.267Z,250
2017-02-05T11:18:49.653Z,250
2017-02-05T11:20:00.413Z,250
2017-02-05T11:21:10.797Z,250
2017-02-05T11:22:21.162Z,250
2017-02-05T11:23:31.532Z,250
2017-02-05T11:24:41.915Z,250
2017-02-05T11:25:51.887Z,250
2017-02-05T11:27:02.261Z,250
2017-02-05T11:28:12.688Z,250
2017-02-05T11:29:23.063Z,250
2017-02-05T11:30:32.664Z,255
2017-02-05T11:31:42.653Z,250
2017-02-05T11:32:53.028Z,255
2017-02-05T11:34:03.787Z,255
2017-02-05T11:35:14.144Z,260
2017-02-05T11:36:24.997Z,260
2017-02-05T11:37:35.873Z,255
2017-02-05T11:38:46.257Z,255
2017-02-05T11:39:56.219Z,255
2017-02-05T11:41:06.586Z,260
2017-02-05T11:42:17.355Z,255
2017-02-05T11:43:28.125Z,255
2017-02-05T11:44:38.143Z,255
2017-02-05T11:45:48.914Z,255
2017-02-05T11:46:59.274Z,255
2017-02-05T11:48:09.272Z,255
2017-02-05T11:49:19.685Z,255
2017-02-05T11:50:30.484Z,255
2017-02-05T11:51:40.505Z,255
2017-02-05T11:52:51.271Z,255
2017-02-05T11:54:01.644Z,215
2017-02-05T11:55:12.416Z,240
2017-02-05T11:56:22.791Z,220
2017-02-05T11:57:33.154Z,225
2017-02-05T11:58:43.922Z,230
2017-02-05T11:59:54.313Z,255
2017-02-05T12:01:05.065Z,255
2017-02-05T12:02:15.844Z,255
2017-02-05T12:03:26.205Z,255
2017-02-05T12:04:36.588Z,255
2017-02-05T12:05:47.001Z,255
2017-02-05T12:06:57.379Z,255
2017-02-05T12:08:08.144Z,255
2017-02-05T12:09:18.912Z,255
2017-02-05T12:10:29.698Z,255
2017-02-05T12:11:40.074Z,255
2017-02-05T12:12:50.852Z,255
2017-02-05T12:14:01.663Z,255
2017-02-05T12:15:12.462Z,255
2017-02-05T12:16:23.218Z,255
2017-02-05T12:17:33.200Z,250
2017-02-05T12:18:43.181Z,255
2017-02-05T12:19:53.956Z,255
2017-02-05T12:21:04.382Z,260
2017-02-05T12:22:14.757Z,260
2017-02-05T12:23:25.581Z,265
2017-02-05T12:24:35.964Z,280
2017-02-05T12:25:46.321Z,280
2017-02-05T12:26:56.692Z,275
2017-02-05T12:28:07.459Z,280
2017-02-05T12:29:18.250Z,275
2017-02-05T12:30:29.012Z,260
2017-02-05T12:31:38.990Z,275
2017-02-05T12:32:48.967Z,260
2017-02-05T12:33:59.329Z,260
2017-02-05T12:35:09.726Z,265
2017-02-05T12:36:20.077Z,250
2017-02-05T12:37:30.835Z,210
2017-02-05T12:38:41.229Z,240
2017-02-05T12:39:51.984Z,195
2017-02-05T12:41:02.346Z,165
2017-02-05T12:42:12.306Z,115
2017-02-05T12:43:22.668Z,140
2017-02-05T12:44:33.031Z,230
2017-02-05T12:45:43.392Z,245
2017-02-05T12:46:54.161Z,255
2017-02-05T12:48:04.543Z,250
2017-02-05T12:49:14.921Z,255
2017-02-05T12:50:25.270Z,250
2017-02-05T12:51:36.031Z,210
2017-02-05T12:52:45.997Z,170
2017-02-05T12:53:56.773Z,160
2017-02-05T12:55:06.755Z,250
2017-02-05T12:56:17.148Z,250
2017-02-05T12:57:27.518Z,250
2017-02-05T12:58:38.258Z,250
2017-02-05T12:59:49.013Z,250
2017-02-05T13:00:59.379Z,220
2017-02-05T13:02:09.751Z,245
2017-02-05T13:03:20.107Z,240
2017-02-05T13:04:30.473Z,240
2017-02-05T13:05:41.255Z,240
2017-02-05T13:06:51.616Z,235
2017-02-05T13:08:02.370Z,235
2017-02-05T13:09:12.740Z,215
2017-02-05T13:10:23.498Z,180
2017-02-05T13:11:34.256Z,180
2017-02-05T13:12:45.026Z,155
2017-02-05T13:13:55.394Z,180
2017-02-05T13:15:04.972Z,125
2017-02-05T13:16:15.720Z,195
2017-02-05T13:17:26.483Z,195
2017-02-05T13:18:37.264Z,195
2017-02-05T13:19:48.042Z,195
2017-02-05T13:20:58.411Z,165
2017-02-05T13:22:08.380Z,155
2017-02-05T13:23:18.356Z,165
2017-02-05T13:24:28.737Z,195
2017-02-05T13:25:39.165Z,205
2017-02-05T13:26:49.536Z,230
2017-02-05T13:28:00.317Z,195
2017-02-05T13:29:10.690Z,165
2017-02-05T13:30:21.447Z,130
2017-02-05T13:31:31.040Z,125
2017-02-05T13:32:41.787Z,120
2017-02-05T13:33:52.532Z,140
2017-02-05T13:35:02.508Z,165
2017-02-05T13:36:13.277Z,135
2017-02-05T13:37:23.650Z,160
2017-02-05T13:38:34.021Z,200
2017-02-05T13:39:44.794Z,200
2017-02-05T13:40:53.993Z,200
2017-02-05T13:42:04.367Z,195
2017-02-05T13:43:14.731Z,170
2017-02-05T13:44:24.722Z,165
2017-02-05T13:45:35.083Z,170
2017-02-05T13:46:45.849Z,130
2017-02-05T13:47:56.618Z,140
2017-02-05T13:49:07.011Z,160
2017-02-05T13:50:17.807Z,170
2017-02-05T13:51:27.785Z,165
2017-02-05T13:52:37.394Z,150
2017-02-05T13:53:47.770Z,130
2017-02-05T13:54:58.539Z,125
2017-02-05T13:56:09.298Z,110
2017-02-05T13:57:20.074Z,115
2017-02-05T13:58:30.849Z,110
2017-02-05T13:59:41.603Z,110
2017-02-05T14:00:52.367Z,115
2017-02-05T14:02:03.136Z,95
2017-02-05T14:03:13.505Z,100
2017-02-05T14:04:24.274Z,100
2017-02-05T14:05:35.048Z,80
2017-02-05T14:06:45.461Z,85
2017-02-05T14:07:55.435Z,80
2017-02-05T14:09:06.198Z,75
2017-02-05T14:10:16.961Z,70
2017-02-05T14:11:27.732Z,65
2017-02-05T14:12:38.124Z,65
2017-02-05T14:13:48.895Z,65
2017-02-05T14:14:58.895Z,70
2017-02-05T14:16:09.664Z,80
2017-02-05T14:17:19.669Z,75
2017-02-05T14:18:30.034Z,80
2017-02-05T14:19:40.000Z,75
2017-02-05T14:20:50.781Z,75
2017-02-05T14:22:01.557Z,70
2017-02-05T14:23:12.302Z,70
2017-02-05T14:24:23.131Z,65
2017-02-05T14:25:33.894Z,70
2017-02-05T14:26:44.285Z,70
2017-02-05T14:27:54.266Z,65
2017-02-05T14:29:05.048Z,65
2017-02-05T14:30:15.789Z,65
2017-02-05T14:31:26.191Z,65
2017-02-05T14:32:36.554Z,65
2017-02-05T14:33:46.919Z,65
2017-02-05T14:34:57.303Z,65
2017-02-05T14:36:07.259Z,65
2017-02-05T14:37:18.008Z,65
2017-02-05T14:38:28.767Z,65
2017-02-05T14:39:38.748Z,65
2017-02-05T14:40:49.523Z,65
2017-02-05T14:42:00.382Z,65
2017-02-05T14:43:10.744Z,65
2017-02-05T14:44:21.546Z,60
2017-02-05T14:45:32.313Z,60
2017-02-05T14:46:43.088Z,60
2017-02-05T14:47:53.851Z,55
2017-02-05T14:49:04.213Z,55
2017-02-05T14:50:14.579Z,55
2017-02-05T14:51:25.374Z,50
2017-02-05T14:52:36.138Z,50
2017-02-05T14:53:46.498Z,50
2017-02-05T14:54:56.881Z,45
2017-02-05T14:56:07.243Z,45
2017-02-05T14:57:18.011Z,40
2017-02-05T14:58:28.407Z,40
2017-02-05T14:59:38.777Z,40
2017-02-05T15:00:49.145Z,35
2017-02-05T15:01:59.526Z,35
2017-02-05T15:03:10.272Z,35
2017-02-05T15:04:20.628Z,35
2017-02-05T15:05:30.992Z,35
2017-02-05T15:06:41.744Z,35
2017-02-05T15:07:51.315Z,35
2017-02-05T15:09:02.110Z,30
2017-02-05T15:10:11.680Z,30
2017-02-05T15:11:22.045Z,30
2017-02-05T15:12:32.420Z,30
2017-02-05T15:13:42.788Z,30
2017-02-05T15:14:51.992Z,30
2017-02-05T15:16:02.357Z,30
2017-02-05T15:17:13.113Z,30
2017-02-05T15:18:23.083Z,35
2017-02-05T15:19:33.845Z,35
2017-02-05T15:20:43.821Z,35
2017-02-05T15:21:54.178Z,30
2017-02-05T15:23:04.953Z,30
2017-02-05T15:24:15.312Z,30
2017-02-05T15:25:26.057Z,30
2017-02-05T15:26:36.830Z,30
2017-02-05T15:27:47.579Z,25
2017-02-05T15:28:57.561Z,25
2017-02-05T15:30:08.328Z,25
2017-02-05T15:31:18.705Z,25
2017-02-05T15:32:29.471Z,20
2017-02-05T15:33:40.213Z,20
2017-02-05T15:34:51.048Z,20
2017-02-05T15:36:01.014Z,20
2017-02-05T15:37:10.590Z,20
2017-02-05T15:38:20.553Z,15
2017-02-05T15:39:30.534Z,15
2017-02-05T15:40:40.915Z,15
2017-02-05T15:41:50.500Z,15
2017-02-05T15:43:00.503Z,15
2017-02-05T15:44:10.481Z,10
2017-02-05T15:45:21.247Z,10
2017-02-05T15:46:31.606Z,10
2017-02-05T15:47:41.967Z,10
2017-02-05T15:48:51.552Z,10
2017-02-05T15:50:01.515Z,5
2017-02-05T15:51:11.086Z,5
2017-02-05T15:52:21.042Z,5
2017-02-05T15:53:31.794Z,5
2017-02-05T15:54:41.745Z,5
2017-02-05T15:55:52.099Z,5
2017-02-05T15:57:02.872Z,5
2017-02-05T15:58:13.235Z,5
2017-02-05T15:59:24.003Z,5
2017-02-05T16:00:34.367Z,0
2017-02-05T16:01:44.732Z,0
2017-02-05T16:02:55.512Z,0
2017-02-05T16:04:05.879Z,0
2017-02-05T16:05:16.642Z,0
2017-02-05T16:06:26.615Z,0
2017-02-05T16:07:37.378Z,0
2017-02-05T16:08:47.738Z,0
2017-02-05T16:09:58.548Z,0
2017-02-05T16:11:08.520Z,0
2017-02-05T16:12:18.877Z,0
2017-02-05T16:13:29.221Z,0
2017-02-05T16:14:39.180Z,0
2017-02-05T16:15:49.537Z,0
2017-02-05T16:17:00.105Z,0
2017-02-05T16:18:10.469Z,0
2017-02-05T16:19:21.224Z,0
2017-02-05T16:20:31.584Z,0
2017-02-05T16:21:41.936Z,0
2017-02-05T16:22:52.312Z,0
2017-02-05T16:24:03.064Z,0
2017-02-05T16:25:13.434Z,0
2017-02-05T16:26:23.807Z,0
2017-02-05T16:27:34.576Z,0
2017-02-05T16:28:45.352Z,0
2017-02-05T16:29:55.342Z,0
2017-02-05T16:31:05.708Z,0
2017-02-05T16:32:15.693Z,0
2017-02-05T16:33:26.452Z,0
2017-02-05T16:34:37.223Z,0
2017-02-05T16:35:47.592Z,0
2017-02-05T16:36:58.368Z,0
2017-02-05T16:38:08.709Z,0
2017-02-05T16:39:18.711Z,0
2017-02-05T16:40:29.069Z,0
2017-02-05T16:41:39.824Z,0
2017-02-05T16:42:50.190Z,0
2017-02-05T16:44:00.546Z,0
2017-02-05T16:45:10.892Z,0
2017-02-05T16:46:20.482Z,0
2017-02-05T16:47:31.232Z,0
2017-02-05T16:48:41.212Z,0
2017-02-05T16:49:51.968Z,0
2017-02-05T16:51:02.732Z,0
2017-02-05T16:52:12.704Z,0
2017-02-05T16:53:22.717Z,0
2017-02-05T16:54:33.463Z,0
2017-02-05T16:55:44.220Z,0
2017-02-05T16:56:54.585Z,0
2017-02-05T16:58:05.358Z,0
2017-02-05T16:59:15.739Z,0
2017-02-05T17:00:26.488Z,0
2017-02-05T17:01:37.242Z,0
2017-02-05T17:02:48.029Z,0
2017-02-05T17:03:58.780Z,0
2017-02-05T17:05:09.535Z,0
2017-02-05T17:06:20.296Z,0
2017-02-05T17:07:30.271Z,0
2017-02-05T17:08:40.675Z,0
2017-02-05T17:09:51.015Z,0
2017-02-05T17:11:01.402Z,0
2017-02-05T17:12:11.763Z,0
2017-02-05T17:13:22.534Z,0
2017-02-05T17:14:32.899Z,0
2017-02-05T17:15:43.654Z,0
2017-02-05T17:16:54.273Z,0